Time;durP1;ratioP1;P1;durP2;ratioP2;P2;SDS_P1;SDS_P2;PMS_P1;PMS_P2;Temp;Humidity;BMP_temperature;BMP_pressure;BME280_temperature;BME280_humidity;BME280_pressure;Samples;Min_cycle;Max_cycle;Signal;HPM_P1;HPM_P2
2021/12/31 00:02:06;;;;;;;11.35;4.95;;;;;;;;;;4971122;28;20220;-60
2021/12/31 00:04:31;;;;;;;15.77;6.00;;;;;;;;;;4970448;28;20679;-59
2021/12/31 00:06:56;;;;;;;10.75;4.45;;;;;;;;;;4987313;28;20217;-59
2021/12/31 00:09:21;;;;;;;14.07;5.95;;;;;;;;;;4990117;28;20645;-59
2021/12/31 00:11:47;;;;;;;11.15;4.00;;;;;;;;;;4983736;28;20209;-59
2021/12/31 00:14:12;;;;;;;11.23;5.35;;;;;;;;;;4970892;28;20575;-59
2021/12/31 00:16:37;;;;;;;10.40;4.03;;;;;;;;;;4971390;28;20213;-59
2021/12/31 00:19:02;;;;;;;7.75;3.80;;;;;;;;;;4970113;28;20723;-60
2021/12/31 00:21:32;;;;;;;10.65;3.75;;;;;;;;;;4973982;28;20220;-59
2021/12/31 00:23:58;;;;;;;9.77;4.28;;;;;;;;;;4990764;28;20263;-59
2021/12/31 00:26:23;;;;;;;11.43;5.05;;;;;;;;;;4989472;28;20252;-59
2021/12/31 00:28:48;;;;;;;10.30;3.70;;;;;;;;;;4990701;28;20213;-60
2021/12/31 00:31:13;;;;;;;11.90;3.75;;;;;;;;;;4990054;28;20311;-60
2021/12/31 00:33:39;;;;;;;9.00;3.58;;;;;;;;;;4989903;28;20209;-59
2021/12/31 00:36:04;;;;;;;10.55;4.00;;;;;;;;;;4988791;28;20244;-59
2021/12/31 00:38:29;;;;;;;12.25;4.72;;;;;;;;;;4990456;28;20212;-59
2021/12/31 00:40:54;;;;;;;13.70;5.65;;;;;;;;;;4989507;28;20209;-59
2021/12/31 00:43:20;;;;;;;10.95;4.50;;;;;;;;;;4991331;28;20308;-59
2021/12/31 00:45:45;;;;;;;8.77;3.63;;;;;;;;;;4993982;28;20216;-59
2021/12/31 00:48:11;;;;;;;9.45;3.47;;;;;;;;;;4992609;28;20229;-59
2021/12/31 00:50:36;;;;;;;8.40;3.55;;;;;;;;;;4993799;28;20463;-59
2021/12/31 00:53:01;;;;;;;12.05;3.95;;;;;;;;;;5007772;28;20307;-59
2021/12/31 00:55:27;;;;;;;9.05;3.10;;;;;;;;;;4993521;28;20220;-59
2021/12/31 00:57:52;;;;;;;11.77;2.90;;;;;;;;;;4993901;28;20217;-59
2021/12/31 01:00:17;;;;;;;8.68;2.70;;;;;;;;;;5007569;28;20221;-59
2021/12/31 01:02:43;;;;;;;8.15;2.47;;;;;;;;;;4993779;28;20222;-59
2021/12/31 01:05:09;;;;;;;6.88;3.00;;;;;;;;;;4992889;28;20228;-59
2021/12/31 01:07:34;;;;;;;8.30;2.88;;;;;;;;;;5007731;28;20221;-59
2021/12/31 01:10:01;;;;;;;9.80;2.70;;;;;;;;;;4993573;28;20239;-59
2021/12/31 01:12:26;;;;;;;9.30;3.17;;;;;;;;;;4992213;28;20201;-59
2021/12/31 01:15:02;;;;;;;8.15;2.58;;;;;;;;;;4992801;28;20232;-59
2021/12/31 01:20:02;;;;;;;7.28;2.28;;;;;;;;;;4992995;28;20267;-60
2021/12/31 01:22:30;;;;;;;9.43;2.95;;;;;;;;;;4996704;28;20477;-59
2021/12/31 01:24:56;;;;;;;8.95;2.50;;;;;;;;;;4973719;28;20309;-59
2021/12/31 01:27:21;;;;;;;7.82;2.70;;;;;;;;;;4987947;28;20296;-59
2021/12/31 01:29:46;;;;;;;7.63;2.28;;;;;;;;;;4973086;28;20547;-59
2021/12/31 01:32:12;;;;;;;7.68;2.72;;;;;;;;;;4973139;28;20223;-59
2021/12/31 01:34:37;;;;;;;5.22;2.10;;;;;;;;;;4973773;28;20745;-59
2021/12/31 01:37:02;;;;;;;6.68;2.38;;;;;;;;;;4986968;28;20217;-59
2021/12/31 01:39:28;;;;;;;7.15;2.30;;;;;;;;;;4973592;28;20226;-59
2021/12/31 01:41:55;;;;;;;6.68;2.40;;;;;;;;;;4973199;28;20230;-59
2021/12/31 01:44:22;;;;;;;6.80;1.88;;;;;;;;;;4972192;28;20236;-59
2021/12/31 01:46:57;;;;;;;7.47;2.30;;;;;;;;;;4973268;28;20552;-59
2021/12/31 01:49:27;;;;;;;7.00;1.98;;;;;;;;;;4986908;28;20691;-59
2021/12/31 01:51:52;;;;;;;8.57;2.25;;;;;;;;;;4973007;28;20694;-59
2021/12/31 01:54:17;;;;;;;8.32;2.10;;;;;;;;;;4972207;28;20252;-59
2021/12/31 01:56:43;;;;;;;6.53;1.95;;;;;;;;;;4971965;28;20592;-59
2021/12/31 01:59:08;;;;;;;7.90;2.17;;;;;;;;;;4987727;28;20218;-59
2021/12/31 02:01:34;;;;;;;5.65;1.92;;;;;;;;;;4973140;28;20260;-59
2021/12/31 02:03:59;;;;;;;6.35;2.25;;;;;;;;;;4972150;28;20230;-59
2021/12/31 02:06:26;;;;;;;8.48;2.60;;;;;;;;;;4999124;28;20255;-59
2021/12/31 02:08:51;;;;;;;4.85;2.05;;;;;;;;;;5007351;28;20213;-59
2021/12/31 02:11:16;;;;;;;7.03;1.98;;;;;;;;;;4989102;28;20217;-59
2021/12/31 02:13:42;;;;;;;5.10;1.70;;;;;;;;;;4972628;28;20296;-59
2021/12/31 02:16:07;;;;;;;8.25;1.90;;;;;;;;;;4972580;28;20325;-59
2021/12/31 02:18:33;;;;;;;6.50;2.00;;;;;;;;;;4971881;28;20277;-59
2021/12/31 02:20:58;;;;;;;5.03;1.98;;;;;;;;;;4972940;28;20221;-59
2021/12/31 02:23:26;;;;;;;7.22;2.00;;;;;;;;;;4990032;28;20224;-59
2021/12/31 02:25:51;;;;;;;9.88;2.00;;;;;;;;;;4991528;28;20213;-59
2021/12/31 02:28:18;;;;;;;5.32;1.90;;;;;;;;;;4991205;28;20260;-59
2021/12/31 02:30:43;;;;;;;7.13;2.00;;;;;;;;;;5006943;28;20664;-59
2021/12/31 02:33:08;;;;;;;10.93;1.85;;;;;;;;;;4990729;28;20213;-59
2021/12/31 02:35:34;;;;;;;10.35;1.95;;;;;;;;;;4991981;28;20291;-59
2021/12/31 02:37:59;;;;;;;6.45;2.00;;;;;;;;;;4991776;28;20758;-59
2021/12/31 02:40:27;;;;;;;7.55;1.80;;;;;;;;;;4990621;28;20220;-59
2021/12/31 02:42:53;;;;;;;6.60;1.73;;;;;;;;;;4991600;28;20540;-59
2021/12/31 02:45:21;;;;;;;4.85;1.60;;;;;;;;;;5006405;28;20535;-59
2021/12/31 02:47:46;;;;;;;6.22;1.75;;;;;;;;;;4989168;28;20589;-59
2021/12/31 02:50:13;;;;;;;4.13;1.58;;;;;;;;;;4991243;28;20300;-59
2021/12/31 02:52:38;;;;;;;4.50;1.40;;;;;;;;;;4990729;28;20300;-59
2021/12/31 02:55:03;;;;;;;6.32;1.63;;;;;;;;;;4990999;28;20304;-59
2021/12/31 02:57:29;;;;;;;4.15;1.42;;;;;;;;;;5006749;28;20305;-59
2021/12/31 02:59:54;;;;;;;6.38;1.55;;;;;;;;;;5005709;28;20225;-59
2021/12/31 03:02:24;;;;;;;6.40;2.03;;;;;;;;;;5006133;28;20213;-59
2021/12/31 03:04:50;;;;;;;5.57;1.70;;;;;;;;;;4991183;28;20770;-59
2021/12/31 03:07:15;;;;;;;6.55;2.05;;;;;;;;;;4986393;28;20214;-59
2021/12/31 03:09:43;;;;;;;4.05;1.80;;;;;;;;;;4986627;28;20680;-59
2021/12/31 03:12:09;;;;;;;7.45;1.65;;;;;;;;;;4994399;28;20224;-59
2021/12/31 03:14:34;;;;;;;3.38;1.58;;;;;;;;;;5005266;28;20217;-59
2021/12/31 03:16:59;;;;;;;5.32;1.50;;;;;;;;;;5006265;28;20217;-59
2021/12/31 03:19:25;;;;;;;7.40;1.60;;;;;;;;;;4990642;28;20209;-59
2021/12/31 03:21:50;;;;;;;7.68;2.30;;;;;;;;;;4984995;28;20240;-59
2021/12/31 03:24:15;;;;;;;4.38;1.48;;;;;;;;;;4971003;28;20312;-59
2021/12/31 03:26:40;;;;;;;7.22;1.60;;;;;;;;;;4971717;28;20213;-59
2021/12/31 03:29:06;;;;;;;5.53;1.70;;;;;;;;;;4970351;28;20210;-59
2021/12/31 03:31:31;;;;;;;5.72;1.50;;;;;;;;;;4971658;28;20213;-59
2021/12/31 03:33:56;;;;;;;5.28;1.75;;;;;;;;;;4986455;28;20242;-59
2021/12/31 03:36:22;;;;;;;4.35;1.40;;;;;;;;;;4970555;28;20237;-59
2021/12/31 03:38:47;;;;;;;7.30;1.63;;;;;;;;;;4986287;28;20224;-59
2021/12/31 03:41:12;;;;;;;5.03;1.52;;;;;;;;;;4971078;28;20301;-59
2021/12/31 03:43:37;;;;;;;5.05;1.38;;;;;;;;;;4970835;28;20221;-59
2021/12/31 03:46:03;;;;;;;4.88;1.75;;;;;;;;;;4970811;28;20246;-59
2021/12/31 03:48:28;;;;;;;4.32;1.42;;;;;;;;;;4971287;28;20277;-59
2021/12/31 03:50:54;;;;;;;6.00;1.63;;;;;;;;;;4970724;28;20240;-59
2021/12/31 03:53:19;;;;;;;2.88;1.33;;;;;;;;;;4971020;28;20209;-59
2021/12/31 03:55:45;;;;;;;5.28;1.65;;;;;;;;;;4970735;28;20202;-59
2021/12/31 03:58:10;;;;;;;5.78;1.50;;;;;;;;;;4970868;28;20667;-59
2021/12/31 04:00:35;;;;;;;7.68;1.50;;;;;;;;;;4986093;28;20221;-59
2021/12/31 04:03:04;;;;;;;5.07;1.40;;;;;;;;;;4970154;28;20728;-60
2021/12/31 04:05:30;;;;;;;5.45;1.42;;;;;;;;;;4975615;28;20220;-59
2021/12/31 04:07:55;;;;;;;7.07;1.63;;;;;;;;;;4990808;28;20209;-59
2021/12/31 04:10:23;;;;;;;5.22;1.60;;;;;;;;;;4989346;28;20632;-59
2021/12/31 04:12:48;;;;;;;5.90;1.38;;;;;;;;;;4976272;28;20221;-59
2021/12/31 04:15:13;;;;;;;4.43;1.48;;;;;;;;;;4970658;28;20297;-59
2021/12/31 04:17:40;;;;;;;6.93;1.45;;;;;;;;;;4970626;28;20699;-59
2021/12/31 04:20:07;;;;;;;3.72;1.50;;;;;;;;;;4974628;28;20615;-59
2021/12/31 04:22:32;;;;;;;3.10;1.45;;;;;;;;;;4986185;28;20301;-59
2021/12/31 04:24:58;;;;;;;6.57;1.70;;;;;;;;;;4993321;28;20311;-59
2021/12/31 04:27:23;;;;;;;6.43;1.77;;;;;;;;;;4993839;28;20209;-59
2021/12/31 04:29:54;;;;;;;3.25;1.50;;;;;;;;;;4994212;28;20873;-59
2021/12/31 04:32:20;;;;;;;5.78;2.00;;;;;;;;;;4992947;28;20217;-59
2021/12/31 04:34:45;;;;;;;4.63;1.70;;;;;;;;;;5009306;28;20296;-59
2021/12/31 04:37:11;;;;;;;8.52;2.08;;;;;;;;;;5008457;28;20766;-59
2021/12/31 04:39:36;;;;;;;4.53;1.63;;;;;;;;;;5008350;28;20215;-59
2021/12/31 04:42:02;;;;;;;4.78;1.70;;;;;;;;;;4993524;28;20569;-59
2021/12/31 04:44:27;;;;;;;8.77;1.85;;;;;;;;;;4993910;28;20217;-59
2021/12/31 04:46:52;;;;;;;6.40;1.70;;;;;;;;;;4991556;28;20567;-59
2021/12/31 04:49:18;;;;;;;5.07;1.70;;;;;;;;;;4993282;28;20229;-59
2021/12/31 04:51:43;;;;;;;6.13;1.80;;;;;;;;;;4993732;28;20224;-59
2021/12/31 04:54:14;;;;;;;6.63;1.90;;;;;;;;;;4992628;28;20545;-59
2021/12/31 04:56:39;;;;;;;4.60;1.77;;;;;;;;;;4993483;28;20209;-59
2021/12/31 04:59:05;;;;;;;7.03;1.85;;;;;;;;;;4992542;28;20213;-59
2021/12/31 05:01:30;;;;;;;4.40;1.83;;;;;;;;;;4993571;28;20291;-59
2021/12/31 05:03:55;;;;;;;6.88;1.70;;;;;;;;;;4993902;28;20556;-59
2021/12/31 05:06:20;;;;;;;6.15;1.92;;;;;;;;;;4995928;28;20296;-59
2021/12/31 05:08:46;;;;;;;5.03;1.92;;;;;;;;;;4974116;28;20292;-59
2021/12/31 05:11:11;;;;;;;6.30;1.80;;;;;;;;;;4974038;28;20209;-59
2021/12/31 05:13:36;;;;;;;7.05;1.80;;;;;;;;;;4992684;28;20695;-59
2021/12/31 05:16:04;;;;;;;8.15;1.80;;;;;;;;;;4992825;28;20630;-59
2021/12/31 05:18:29;;;;;;;7.10;2.10;;;;;;;;;;4993188;28;20220;-59
2021/12/31 05:20:54;;;;;;;7.03;2.05;;;;;;;;;;5007506;28;20225;-59
2021/12/31 05:23:19;;;;;;;4.82;1.83;;;;;;;;;;4974800;28;20407;-59
2021/12/31 05:25:45;;;;;;;7.25;1.80;;;;;;;;;;4973630;28;20260;-59
2021/12/31 05:28:10;;;;;;;5.80;1.88;;;;;;;;;;4972341;28;20575;-59
2021/12/31 05:30:35;;;;;;;6.55;2.35;;;;;;;;;;4973581;28;20754;-59
2021/12/31 05:33:01;;;;;;;5.68;2.05;;;;;;;;;;4987853;28;20795;-60
2021/12/31 05:35:26;;;;;;;7.22;2.20;;;;;;;;;;4972858;28;20264;-59
2021/12/31 05:37:52;;;;;;;7.03;2.08;;;;;;;;;;4973295;28;20217;-59
2021/12/31 05:40:17;;;;;;;4.85;2.08;;;;;;;;;;4987931;28;20213;-59
2021/12/31 05:42:43;;;;;;;7.15;2.50;;;;;;;;;;4972398;28;20695;-59
2021/12/31 05:45:09;;;;;;;7.35;2.40;;;;;;;;;;4973023;28;20267;-60
2021/12/31 05:47:35;;;;;;;5.78;2.35;;;;;;;;;;4987582;28;20230;-59
2021/12/31 05:50:03;;;;;;;8.25;2.50;;;;;;;;;;4972669;28;20222;-59
2021/12/31 05:52:29;;;;;;;6.13;2.15;;;;;;;;;;4972917;28;20681;-58
2021/12/31 05:54:54;;;;;;;5.53;2.00;;;;;;;;;;4973061;28;20224;-58
2021/12/31 05:57:19;;;;;;;8.00;2.40;;;;;;;;;;4970711;28;20422;-57
2021/12/31 05:59:44;;;;;;;8.30;2.38;;;;;;;;;;4972990;28;20289;-57
2021/12/31 06:02:10;;;;;;;8.03;2.50;;;;;;;;;;4978994;28;20437;-58
2021/12/31 06:04:37;;;;;;;5.88;2.20;;;;;;;;;;4988849;28;20232;-57
2021/12/31 06:07:02;;;;;;;7.80;2.10;;;;;;;;;;4977496;28;20648;-58
2021/12/31 06:09:29;;;;;;;4.85;2.10;;;;;;;;;;4974595;28;20221;-57
2021/12/31 06:11:55;;;;;;;6.25;2.17;;;;;;;;;;4973395;28;20300;-57
2021/12/31 06:14:20;;;;;;;6.72;1.98;;;;;;;;;;4994790;28;20244;-58
2021/12/31 06:16:46;;;;;;;7.20;2.30;;;;;;;;;;4991593;28;20243;-57
2021/12/31 06:19:12;;;;;;;6.50;2.33;;;;;;;;;;4991522;28;20617;-58
2021/12/31 06:21:38;;;;;;;7.07;2.40;;;;;;;;;;4988516;28;20549;-57
2021/12/31 06:24:04;;;;;;;6.95;2.17;;;;;;;;;;4971297;28;20282;-57
2021/12/31 06:26:29;;;;;;;6.32;2.25;;;;;;;;;;4972426;28;20264;-57
2021/12/31 06:28:54;;;;;;;8.95;2.42;;;;;;;;;;4972221;28;20222;-57
2021/12/31 06:31:20;;;;;;;8.88;2.88;;;;;;;;;;4971331;28;20330;-57
2021/12/31 06:33:45;;;;;;;9.65;2.40;;;;;;;;;;4972068;28;20669;-57
2021/12/31 06:36:11;;;;;;;5.43;2.28;;;;;;;;;;4971963;28;20217;-58
2021/12/31 06:38:36;;;;;;;5.82;2.35;;;;;;;;;;4971420;28;20206;-57
2021/12/31 06:41:01;;;;;;;6.10;2.20;;;;;;;;;;4982360;28;20225;-58
2021/12/31 06:43:27;;;;;;;5.78;2.17;;;;;;;;;;4989950;28;20209;-57
2021/12/31 06:45:52;;;;;;;4.78;2.03;;;;;;;;;;4991011;28;20212;-57
2021/12/31 06:48:17;;;;;;;5.63;2.28;;;;;;;;;;4990768;28;20645;-58
2021/12/31 06:50:42;;;;;;;6.10;2.40;;;;;;;;;;4991513;28;20213;-57
2021/12/31 06:53:08;;;;;;;8.60;2.15;;;;;;;;;;4990604;28;20307;-57
2021/12/31 06:55:33;;;;;;;6.03;2.33;;;;;;;;;;4991255;28;20214;-57
2021/12/31 06:57:59;;;;;;;5.53;2.20;;;;;;;;;;4991413;28;20217;-57
2021/12/31 07:00:24;;;;;;;5.68;2.20;;;;;;;;;;4998908;28;20225;-57
2021/12/31 07:02:50;;;;;;;7.32;2.38;;;;;;;;;;4983224;28;20221;-57
2021/12/31 07:05:15;;;;;;;5.82;1.85;;;;;;;;;;4980229;28;20225;-57
2021/12/31 07:07:40;;;;;;;5.97;2.03;;;;;;;;;;4980664;28;20683;-57
2021/12/31 07:10:06;;;;;;;7.63;2.30;;;;;;;;;;4989691;28;20331;-57
2021/12/31 07:12:31;;;;;;;7.75;2.20;;;;;;;;;;4990389;28;20290;-57
2021/12/31 07:14:57;;;;;;;4.80;2.10;;;;;;;;;;4990172;28;20291;-57
2021/12/31 07:17:22;;;;;;;7.18;2.45;;;;;;;;;;5005745;28;20233;-58
2021/12/31 07:19:47;;;;;;;6.05;2.40;;;;;;;;;;4990312;28;20216;-57
2021/12/31 07:22:12;;;;;;;6.35;2.13;;;;;;;;;;4982277;28;20405;-57
2021/12/31 07:24:38;;;;;;;4.72;1.95;;;;;;;;;;4971496;28;20714;-56
2021/12/31 07:27:03;;;;;;;6.68;2.53;;;;;;;;;;4970494;28;20276;-57
2021/12/31 07:29:28;;;;;;;6.25;2.28;;;;;;;;;;4971461;28;20260;-57
2021/12/31 07:31:54;;;;;;;7.93;2.20;;;;;;;;;;4971653;28;20276;-60
2021/12/31 07:34:19;;;;;;;5.22;2.05;;;;;;;;;;4985275;28;20210;-59
2021/12/31 07:36:44;;;;;;;8.95;2.33;;;;;;;;;;4971507;28;20214;-60
2021/12/31 07:39:12;;;;;;;6.50;2.63;;;;;;;;;;4971199;28;20228;-61
2021/12/31 07:41:37;;;;;;;4.95;2.25;;;;;;;;;;4970698;28;20209;-61
2021/12/31 07:44:03;;;;;;;5.85;2.20;;;;;;;;;;4971112;28;20328;-60
2021/12/31 07:46:28;;;;;;;5.63;2.20;;;;;;;;;;4971461;28;20257;-60
2021/12/31 07:48:53;;;;;;;6.63;2.00;;;;;;;;;;4970591;28;20369;-60
2021/12/31 07:51:19;;;;;;;6.97;2.10;;;;;;;;;;4970796;28;20647;-60
2021/12/31 07:53:44;;;;;;;6.75;2.30;;;;;;;;;;4988191;28;20263;-60
2021/12/31 07:56:09;;;;;;;7.60;2.13;;;;;;;;;;4974008;28;20220;-59
2021/12/31 07:58:35;;;;;;;8.18;2.15;;;;;;;;;;4975390;28;20224;-59
2021/12/31 08:01:00;;;;;;;5.93;2.30;;;;;;;;;;4974942;28;20213;-59
2021/12/31 08:03:25;;;;;;;7.00;2.10;;;;;;;;;;4974029;28;20693;-60
2021/12/31 08:05:50;;;;;;;7.45;2.20;;;;;;;;;;4982842;28;20236;-60
2021/12/31 08:08:16;;;;;;;7.30;2.28;;;;;;;;;;4974632;28;20206;-60
2021/12/31 08:10:41;;;;;;;5.60;2.35;;;;;;;;;;4989147;28;20267;-60
2021/12/31 08:13:06;;;;;;;5.93;2.45;;;;;;;;;;4990170;28;20214;-61
2021/12/31 08:15:32;;;;;;;6.47;2.38;;;;;;;;;;4975158;28;20256;-59
2021/12/31 08:17:57;;;;;;;7.25;2.42;;;;;;;;;;4975754;28;20236;-60
2021/12/31 08:20:23;;;;;;;5.97;2.40;;;;;;;;;;4973816;28;20269;-60
2021/12/31 08:22:48;;;;;;;9.25;2.65;;;;;;;;;;4988034;28;20209;-59
2021/12/31 08:25:13;;;;;;;7.32;2.45;;;;;;;;;;4993035;28;20284;-60
2021/12/31 08:27:39;;;;;;;7.22;2.40;;;;;;;;;;4993318;28;20271;-59
2021/12/31 08:30:07;;;;;;;6.22;2.10;;;;;;;;;;4995129;28;20217;-59
2021/12/31 08:32:32;;;;;;;11.43;2.70;;;;;;;;;;4996356;28;20213;-59
2021/12/31 08:34:58;;;;;;;7.68;2.80;;;;;;;;;;4996122;28;20220;-60
2021/12/31 08:37:23;;;;;;;5.45;2.60;;;;;;;;;;4994918;28;20855;-60
2021/12/31 08:39:48;;;;;;;7.03;3.20;;;;;;;;;;4996255;28;20213;-60
2021/12/31 08:42:13;;;;;;;6.70;3.60;;;;;;;;;;4995658;28;20213;-60
2021/12/31 08:44:39;;;;;;;10.65;4.30;;;;;;;;;;4995356;28;20225;-60
2021/12/31 08:47:04;;;;;;;6.40;3.08;;;;;;;;;;4995416;28;20714;-60
2021/12/31 08:49:29;;;;;;;17.83;11.00;;;;;;;;;;4995479;28;20279;-60
2021/12/31 08:51:55;;;;;;;7.45;2.40;;;;;;;;;;4995050;28;20598;-59
2021/12/31 08:54:20;;;;;;;9.32;2.83;;;;;;;;;;4995342;28;20687;-60
2021/12/31 08:56:46;;;;;;;9.95;3.13;;;;;;;;;;5010904;28;20304;-60
2021/12/31 08:59:12;;;;;;;5.53;2.83;;;;;;;;;;4994777;28;20268;-60
2021/12/31 09:01:38;;;;;;;6.03;2.30;;;;;;;;;;4995702;28;20283;-59
2021/12/31 09:04:04;;;;;;;7.57;3.53;;;;;;;;;;4993285;28;20696;-60
2021/12/31 09:06:29;;;;;;;9.65;4.88;;;;;;;;;;4981852;28;20209;-60
2021/12/31 09:08:55;;;;;;;13.05;5.50;;;;;;;;;;4973472;28;20218;-60
2021/12/31 09:11:20;;;;;;;7.28;2.25;;;;;;;;;;4981487;28;20307;-59
2021/12/31 09:13:47;;;;;;;7.70;2.60;;;;;;;;;;4989087;28;20421;-61
2021/12/31 09:16:12;;;;;;;6.05;3.22;;;;;;;;;;5007591;28;20275;-58
2021/12/31 09:18:37;;;;;;;6.75;3.15;;;;;;;;;;4992936;28;20213;-58
2021/12/31 09:21:03;;;;;;;6.75;3.67;;;;;;;;;;4992161;28;20280;-58
2021/12/31 09:23:28;;;;;;;6.43;2.92;;;;;;;;;;4974383;28;20316;-57
2021/12/31 09:25:55;;;;;;;6.10;3.00;;;;;;;;;;4983897;28;20223;-57
2021/12/31 09:28:21;;;;;;;6.78;2.60;;;;;;;;;;4987560;28;20219;-58
2021/12/31 09:30:46;;;;;;;6.10;2.72;;;;;;;;;;4993363;28;20307;-57
2021/12/31 09:33:11;;;;;;;6.35;4.75;;;;;;;;;;4975647;28;20221;-58
2021/12/31 09:35:37;;;;;;;6.40;4.15;;;;;;;;;;4991550;28;20220;-58
2021/12/31 09:38:08;;;;;;;8.65;2.58;;;;;;;;;;4983360;28;20206;-57
2021/12/31 09:40:33;;;;;;;4.80;2.40;;;;;;;;;;4993168;28;20683;-57
2021/12/31 09:43:04;;;;;;;3.00;2.20;;;;;;;;;;4985518;28;20569;-57
2021/12/31 09:45:30;;;;;;;7.10;2.50;;;;;;;;;;5007100;28;20217;-58
2021/12/31 09:47:59;;;;;;;6.22;2.60;;;;;;;;;;5006343;28;20781;-58
2021/12/31 09:50:25;;;;;;;5.82;2.80;;;;;;;;;;4992325;28;20212;-57
2021/12/31 09:52:51;;;;;;;7.07;4.68;;;;;;;;;;4992377;28;20209;-57
2021/12/31 09:55:33;;;;;;;6.50;4.55;;;;;;;;;;4991350;28;20238;-57
2021/12/31 09:57:58;;;;;;;3.58;2.40;;;;;;;;;;4992690;28;20209;-57
2021/12/31 10:00:26;;;;;;;5.85;3.30;;;;;;;;;;4992141;28;20245;-58
2021/12/31 10:03:07;;;;;;;5.65;3.50;;;;;;;;;;4991422;28;20249;-57
2021/12/31 10:05:48;;;;;;;7.50;2.58;;;;;;;;;;4987313;28;20229;-60
2021/12/31 10:08:16;;;;;;;5.25;2.70;;;;;;;;;;4972416;28;20213;-60
2021/12/31 10:10:42;;;;;;;5.75;1.95;;;;;;;;;;4972216;28;20206;-60
2021/12/31 10:13:08;;;;;;;5.00;2.00;;;;;;;;;;4973028;28;20218;-60
2021/12/31 10:15:39;;;;;;;6.97;2.72;;;;;;;;;;4971574;28;20218;-60
2021/12/31 10:18:12;;;;;;;9.50;4.88;;;;;;;;;;4986787;28;20218;-60
2021/12/31 10:20:47;;;;;;;10.90;4.22;;;;;;;;;;4972781;28;20305;-60
2021/12/31 10:23:13;;;;;;;5.72;2.80;;;;;;;;;;4987857;28;20223;-60
2021/12/31 10:25:39;;;;;;;11.68;7.78;;;;;;;;;;4972504;28;20218;-60
2021/12/31 10:28:11;;;;;;;4.55;3.17;;;;;;;;;;4986594;28;20210;-60
2021/12/31 10:30:36;;;;;;;9.20;3.78;;;;;;;;;;4978481;28;20221;-60
2021/12/31 10:33:02;;;;;;;5.75;2.75;;;;;;;;;;5000319;28;20210;-61
2021/12/31 10:35:36;;;;;;;8.05;4.82;;;;;;;;;;4984626;28;20236;-60
2021/12/31 10:38:01;;;;;;;6.05;3.05;;;;;;;;;;4982547;28;20318;-61
2021/12/31 10:40:28;;;;;;;5.35;2.40;;;;;;;;;;4993891;28;20661;-60
2021/12/31 10:43:10;;;;;;;5.28;2.05;;;;;;;;;;4972015;28;20677;-60
2021/12/31 10:45:36;;;;;;;5.82;2.20;;;;;;;;;;4986154;28;20222;-60
2021/12/31 10:48:08;;;;;;;3.85;1.83;;;;;;;;;;4971283;28;20260;-61
2021/12/31 10:50:35;;;;;;;5.18;2.35;;;;;;;;;;4972107;28;20221;-60
2021/12/31 10:53:07;;;;;;;5.78;2.17;;;;;;;;;;4971278;28;20693;-60
2021/12/31 10:55:34;;;;;;;5.40;2.47;;;;;;;;;;4971886;28;20622;-60
2021/12/31 10:58:00;;;;;;;5.57;2.00;;;;;;;;;;4985368;28;20784;-60
2021/12/31 11:00:26;;;;;;;5.15;2.00;;;;;;;;;;4990967;28;20308;-60
2021/12/31 11:02:51;;;;;;;4.30;1.92;;;;;;;;;;5005971;28;20224;-60
2021/12/31 11:05:18;;;;;;;5.07;2.20;;;;;;;;;;4981878;28;20213;-60
2021/12/31 11:07:43;;;;;;;6.55;2.75;;;;;;;;;;5006132;28;20205;-60
2021/12/31 11:10:09;;;;;;;7.85;2.15;;;;;;;;;;4987391;28;20624;-60
2021/12/31 11:12:34;;;;;;;6.88;3.78;;;;;;;;;;4981222;28;20298;-60
2021/12/31 11:15:00;;;;;;;12.65;7.05;;;;;;;;;;5001764;28;20595;-60
2021/12/31 11:17:25;;;;;;;9.68;3.83;;;;;;;;;;4970900;28;20691;-60
2021/12/31 11:19:50;;;;;;;6.43;2.72;;;;;;;;;;4971084;28;20217;-60
2021/12/31 11:22:17;;;;;;;6.13;3.60;;;;;;;;;;4980222;28;20877;-60
2021/12/31 11:24:43;;;;;;;5.95;2.60;;;;;;;;;;4970722;28;20226;-60
2021/12/31 11:27:27;;;;;;;10.35;4.22;;;;;;;;;;4970591;28;20221;-60
2021/12/31 11:29:53;;;;;;;13.68;6.97;;;;;;;;;;4971562;28;20296;-61
2021/12/31 11:32:18;;;;;;;7.07;3.00;;;;;;;;;;4970910;28;20296;-60
2021/12/31 11:34:44;;;;;;;6.95;2.63;;;;;;;;;;4969385;28;20271;-61
2021/12/31 11:37:09;;;;;;;9.13;4.25;;;;;;;;;;4971013;28;20676;-59
2021/12/31 11:39:36;;;;;;;17.38;9.82;;;;;;;;;;4985873;28;20209;-60
2021/12/31 11:42:03;;;;;;;10.15;5.50;;;;;;;;;;4970440;28;20212;-60
2021/12/31 11:44:29;;;;;;;8.10;3.10;;;;;;;;;;4970929;28;20347;-60
2021/12/31 11:47:12;;;;;;;6.25;2.28;;;;;;;;;;4971448;28;20274;-60
2021/12/31 11:49:37;;;;;;;7.05;2.55;;;;;;;;;;4970550;28;20253;-60
2021/12/31 11:52:05;;;;;;;5.63;2.83;;;;;;;;;;4970885;28;20246;-60
2021/12/31 11:54:31;;;;;;;5.00;2.38;;;;;;;;;;4985130;28;20255;-60
2021/12/31 11:56:57;;;;;;;6.07;2.60;;;;;;;;;;4971252;28;20240;-60
2021/12/31 11:59:29;;;;;;;6.13;2.90;;;;;;;;;;4970768;28;20210;-60
2021/12/31 12:02:04;;;;;;;7.03;3.17;;;;;;;;;;4970314;28;20668;-60
2021/12/31 12:04:33;;;;;;;8.15;3.10;;;;;;;;;;4970939;28;20591;-60
2021/12/31 12:06:59;;;;;;;8.18;3.50;;;;;;;;;;4987524;28;20217;-60
2021/12/31 12:09:44;;;;;;;7.20;3.20;;;;;;;;;;4989472;28;20301;-60
2021/12/31 12:12:10;;;;;;;6.20;3.03;;;;;;;;;;4980777;28;20225;-60
2021/12/31 12:14:37;;;;;;;5.68;2.58;;;;;;;;;;4971153;28;20416;-60
2021/12/31 12:17:03;;;;;;;7.95;3.25;;;;;;;;;;4984635;28;20301;-60
2021/12/31 12:19:46;;;;;;;5.80;3.05;;;;;;;;;;4971312;28;20289;-60
2021/12/31 12:22:26;;;;;;;5.25;2.95;;;;;;;;;;4978173;28;20220;-60
2021/12/31 12:24:51;;;;;;;7.15;2.60;;;;;;;;;;4990488;28;20229;-60
2021/12/31 12:27:16;;;;;;;7.25;2.90;;;;;;;;;;5004413;28;20240;-60
2021/12/31 12:29:42;;;;;;;8.00;3.35;;;;;;;;;;4989747;28;20217;-60
2021/12/31 12:32:07;;;;;;;7.20;3.10;;;;;;;;;;5005059;28;20221;-61
2021/12/31 12:34:33;;;;;;;9.98;3.00;;;;;;;;;;4990470;28;20213;-58
2021/12/31 12:36:58;;;;;;;7.07;2.92;;;;;;;;;;4989605;28;20308;-59
2021/12/31 12:39:23;;;;;;;6.85;2.90;;;;;;;;;;4991098;28;20560;-59
2021/12/31 12:41:49;;;;;;;7.03;2.70;;;;;;;;;;4993800;28;20224;-59
2021/12/31 12:44:16;;;;;;;6.13;2.70;;;;;;;;;;4992767;28;20306;-59
2021/12/31 12:46:52;;;;;;;9.40;3.10;;;;;;;;;;4993594;28;20209;-59
2021/12/31 12:49:18;;;;;;;5.95;2.22;;;;;;;;;;5008198;28;20224;-59
2021/12/31 12:51:44;;;;;;;5.97;2.58;;;;;;;;;;4993014;28;20300;-60
2021/12/31 12:54:11;;;;;;;7.57;2.92;;;;;;;;;;4993364;28;20324;-60
2021/12/31 12:56:36;;;;;;;6.28;2.63;;;;;;;;;;4993801;28;20232;-60
2021/12/31 12:59:02;;;;;;;6.13;2.88;;;;;;;;;;4992656;28;20685;-61
2021/12/31 13:01:31;;;;;;;6.20;2.90;;;;;;;;;;4978811;28;20293;-60
2021/12/31 13:03:56;;;;;;;7.35;2.88;;;;;;;;;;4974019;28;20248;-60
2021/12/31 13:06:22;;;;;;;8.73;3.03;;;;;;;;;;4982757;28;20567;-60
2021/12/31 13:08:47;;;;;;;6.30;2.90;;;;;;;;;;5008523;28;20213;-60
2021/12/31 13:11:15;;;;;;;10.82;3.08;;;;;;;;;;4989942;28;20218;-60
2021/12/31 13:13:40;;;;;;;6.22;2.83;;;;;;;;;;4988035;28;20708;-60
2021/12/31 13:16:06;;;;;;;8.80;3.28;;;;;;;;;;4970164;28;20241;-60
2021/12/31 13:18:33;;;;;;;7.47;2.97;;;;;;;;;;4972930;28;20292;-60
2021/12/31 13:20:59;;;;;;;7.63;3.15;;;;;;;;;;4973121;28;20285;-60
2021/12/31 13:23:24;;;;;;;10.52;3.47;;;;;;;;;;4989642;28;20213;-61
2021/12/31 13:25:50;;;;;;;7.72;3.03;;;;;;;;;;4973345;28;20259;-60
2021/12/31 13:28:18;;;;;;;13.05;4.38;;;;;;;;;;4962715;28;20218;-60
2021/12/31 13:30:50;;;;;;;8.82;3.50;;;;;;;;;;4961737;28;20220;-60
2021/12/31 13:33:24;;;;;;;8.85;3.63;;;;;;;;;;4961413;28;20221;-60
2021/12/31 13:36:07;;;;;;;8.23;3.45;;;;;;;;;;4986880;28;20220;-60
2021/12/31 13:38:52;;;;;;;8.82;3.30;;;;;;;;;;4980127;28;20209;-60
2021/12/31 13:41:19;;;;;;;6.65;3.10;;;;;;;;;;4985932;28;20767;-60
2021/12/31 13:43:51;;;;;;;9.63;3.78;;;;;;;;;;4985515;28;20264;-60
2021/12/31 13:46:16;;;;;;;8.98;3.60;;;;;;;;;;4978736;28;20682;-60
2021/12/31 13:48:41;;;;;;;10.73;3.42;;;;;;;;;;4981206;28;20282;-60
2021/12/31 13:51:25;;;;;;;10.73;3.85;;;;;;;;;;4976273;28;20275;-61
2021/12/31 13:53:51;;;;;;;9.68;4.20;;;;;;;;;;4976088;28;20209;-60
2021/12/31 13:56:17;;;;;;;9.07;4.55;;;;;;;;;;4982714;28;20217;-60
2021/12/31 13:58:42;;;;;;;12.35;5.18;;;;;;;;;;4985253;28;20316;-60
2021/12/31 14:01:11;;;;;;;14.73;7.63;;;;;;;;;;4985385;28;20305;-60
2021/12/31 14:03:36;;;;;;;13.68;5.00;;;;;;;;;;4982359;28;20229;-60
2021/12/31 14:06:04;;;;;;;12.30;5.97;;;;;;;;;;4986440;28;20220;-61
2021/12/31 14:08:41;;;;;;;12.82;5.20;;;;;;;;;;4982999;28;20217;-60
2021/12/31 14:11:07;;;;;;;10.82;4.90;;;;;;;;;;4978307;28;20221;-60
2021/12/31 14:13:40;;;;;;;11.40;5.35;;;;;;;;;;4990375;28;20209;-60
2021/12/31 14:16:05;;;;;;;10.18;5.13;;;;;;;;;;4975106;28;20296;-60
2021/12/31 14:18:30;;;;;;;12.70;5.38;;;;;;;;;;4971873;28;20336;-60
2021/12/31 14:20:55;;;;;;;11.45;6.10;;;;;;;;;;4981554;28;20220;-60
2021/12/31 14:23:21;;;;;;;12.90;6.72;;;;;;;;;;4982062;28;20209;-60
2021/12/31 14:25:46;;;;;;;14.00;6.22;;;;;;;;;;5000374;28;20267;-60
2021/12/31 14:28:11;;;;;;;11.63;6.35;;;;;;;;;;4985804;28;20213;-60
2021/12/31 14:30:37;;;;;;;11.65;5.88;;;;;;;;;;4976900;28;20336;-61
2021/12/31 14:33:02;;;;;;;13.95;6.28;;;;;;;;;;4968537;28;20213;-61
2021/12/31 14:35:32;;;;;;;10.80;5.65;;;;;;;;;;4978752;28;20217;-60
2021/12/31 14:37:58;;;;;;;10.10;5.10;;;;;;;;;;4976634;28;20219;-60
2021/12/31 14:40:24;;;;;;;11.63;5.57;;;;;;;;;;4978936;28;20217;-60